Time;durP1;ratioP1;P1;durP2;ratioP2;P2;SDS_P1;SDS_P2;PMS_P1;PMS_P2;Temp;Humidity;BMP_temperature;BMP_pressure;BME280_temperature;BME280_humidity;BME280_pressure;Samples;Min_cycle;Max_cycle;Signal;HPM_P1;HPM_P2
2023/10/19 00:00:19;;;;;;;10.63;9.18;;;;;;;;;;467796;28;1060;-68
2023/10/19 00:00:44;;;;;;;12.43;10.88;;;;;;;;;;467457;28;1000;-68
2023/10/19 00:00:59;;;;;;;12.75;10.50;;;;;;;;;;469800;28;1051;-68
2023/10/19 00:01:16;;;;;;;12.05;10.18;;;;;;;;;;472011;28;1203;-69
2023/10/19 00:01:34;;;;;;;10.20;9.20;;;;;;;;;;472736;28;1138;-68
2023/10/19 00:01:49;;;;;;;9.80;8.80;;;;;;;;;;473223;28;901;-68
2023/10/19 00:02:06;;;;;;;10.63;9.25;;;;;;;;;;472676;28;1067;-68
2023/10/19 00:02:22;;;;;;;10.43;9.32;;;;;;;;;;471662;28;1117;-68
2023/10/19 00:02:38;;;;;;;10.80;9.70;;;;;;;;;;473465;28;1486;-68
2023/10/19 00:02:54;;;;;;;11.20;10.10;;;;;;;;;;471507;28;940;-69
2023/10/19 00:03:11;;;;;;;10.80;9.70;;;;;;;;;;471189;28;1115;-68
2023/10/19 00:03:26;;;;;;;10.45;9.35;;;;;;;;;;469445;28;1153;-69
2023/10/19 00:03:44;;;;;;;10.80;9.70;;;;;;;;;;470160;28;917;-69
2023/10/19 00:03:59;;;;;;;10.88;9.77;;;;;;;;;;468556;28;1382;-68
2023/10/19 00:04:14;;;;;;;10.87;9.77;;;;;;;;;;468826;28;1156;-68
2023/10/19 00:04:32;;;;;;;10.93;9.80;;;;;;;;;;469028;28;1279;-69
2023/10/19 00:04:47;;;;;;;11.10;10.00;;;;;;;;;;469668;28;1260;-68
2023/10/19 00:05:03;;;;;;;10.93;9.82;;;;;;;;;;471083;28;1053;-69
2023/10/19 00:05:20;;;;;;;10.47;9.37;;;;;;;;;;468561;28;1262;-69
2023/10/19 00:05:35;;;;;;;10.18;9.15;;;;;;;;;;469349;28;960;-69
2023/10/19 00:05:51;;;;;;;10.30;9.18;;;;;;;;;;467530;28;1222;-69
2023/10/19 00:06:06;;;;;;;10.33;9.23;;;;;;;;;;470263;28;1154;-68
2023/10/19 00:06:23;;;;;;;10.70;9.60;;;;;;;;;;469200;28;1276;-69
2023/10/19 00:06:40;;;;;;;10.77;9.68;;;;;;;;;;467943;28;1373;-68
2023/10/19 00:06:55;;;;;;;11.00;9.90;;;;;;;;;;465302;28;1221;-68
2023/10/19 00:07:15;;;;;;;11.00;9.87;;;;;;;;;;465854;28;1552;-68
2023/10/19 00:07:32;;;;;;;10.95;9.85;;;;;;;;;;466060;28;1868;-68
2023/10/19 00:07:49;;;;;;;10.57;9.45;;;;;;;;;;465548;28;1327;-68
2023/10/19 00:08:21;;;;;;;10.52;9.25;;;;;;;;;;467992;28;1262;-68
2023/10/19 00:08:43;;;;;;;10.38;9.27;;;;;;;;;;467130;28;1108;-68
2023/10/19 00:08:59;;;;;;;10.90;9.80;;;;;;;;;;468426;28;1057;-69
2023/10/19 00:09:15;;;;;;;10.75;9.65;;;;;;;;;;468828;28;1056;-68
2023/10/19 00:09:37;;;;;;;10.10;9.00;;;;;;;;;;469362;28;1068;-69
2023/10/19 00:09:53;;;;;;;9.80;8.80;;;;;;;;;;471013;28;1222;-68
2023/10/19 00:10:09;;;;;;;10.68;9.57;;;;;;;;;;469076;28;1280;-68
2023/10/19 00:10:28;;;;;;;10.48;9.38;;;;;;;;;;468966;28;1064;-68
2023/10/19 00:11:31;;;;;;;10.20;9.18;;;;;;;;;;461033;28;1083;-69
2023/10/19 00:11:47;;;;;;;11.13;9.50;;;;;;;;;;462419;28;907;-68
2023/10/19 00:12:05;;;;;;;12.50;9.93;;;;;;;;;;470605;28;1230;-68
2023/10/19 00:12:22;;;;;;;11.15;9.57;;;;;;;;;;469556;28;1922;-68
2023/10/19 00:12:37;;;;;;;9.98;8.98;;;;;;;;;;469961;28;1826;-69
2023/10/19 00:13:00;;;;;;;9.90;9.00;;;;;;;;;;470637;28;1060;-68
2023/10/19 00:13:18;;;;;;;10.27;9.27;;;;;;;;;;471588;28;962;-69
2023/10/19 00:13:35;;;;;;;10.63;9.60;;;;;;;;;;469619;28;1640;-68
2023/10/19 00:13:53;;;;;;;10.10;9.05;;;;;;;;;;470587;28;1214;-68
2023/10/19 00:14:15;;;;;;;9.70;8.65;;;;;;;;;;471498;28;977;-68
2023/10/19 00:14:32;;;;;;;9.63;8.63;;;;;;;;;;473369;28;1911;-68
2023/10/19 00:14:47;;;;;;;9.88;8.73;;;;;;;;;;474969;27;1257;-68
2023/10/19 00:15:04;;;;;;;10.20;9.10;;;;;;;;;;475491;27;846;-68
2023/10/19 00:15:25;;;;;;;10.30;9.20;;;;;;;;;;476232;27;893;-68
2023/10/19 00:15:51;;;;;;;10.35;9.23;;;;;;;;;;475586;27;968;-69
2023/10/19 00:16:17;;;;;;;10.57;9.40;;;;;;;;;;476391;27;909;-68
2023/10/19 00:16:35;;;;;;;11.65;9.63;;;;;;;;;;475356;27;997;-68
2023/10/19 00:16:53;;;;;;;10.95;9.57;;;;;;;;;;472219;28;1531;-68
2023/10/19 00:17:10;;;;;;;10.50;9.38;;;;;;;;;;471462;28;1492;-68
2023/10/19 00:17:27;;;;;;;10.32;9.18;;;;;;;;;;470171;28;1149;-68
2023/10/19 00:17:44;;;;;;;10.20;9.10;;;;;;;;;;469183;28;1053;-68
2023/10/19 00:18:08;;;;;;;9.95;8.95;;;;;;;;;;469064;28;1103;-68
2023/10/19 00:18:24;;;;;;;9.93;8.90;;;;;;;;;;466177;28;1045;-68
2023/10/19 00:18:42;;;;;;;9.90;8.90;;;;;;;;;;467543;28;1105;-68
2023/10/19 00:19:03;;;;;;;10.60;9.50;;;;;;;;;;466855;28;1404;-69
2023/10/19 00:19:21;;;;;;;10.02;9.02;;;;;;;;;;467609;28;2239;-69
2023/10/19 00:19:42;;;;;;;9.93;8.93;;;;;;;;;;468768;28;1570;-68
2023/10/19 00:20:06;;;;;;;9.73;8.75;;;;;;;;;;468926;28;1595;-68
2023/10/19 00:20:52;;;;;;;10.25;9.15;;;;;;;;;;473982;28;950;-69
2023/10/19 00:21:12;;;;;;;10.65;9.50;;;;;;;;;;472145;28;1582;-68
2023/10/19 00:21:27;;;;;;;10.38;9.27;;;;;;;;;;471764;28;1644;-68
2023/10/19 00:21:54;;;;;;;10.82;9.43;;;;;;;;;;468403;28;1144;-68
2023/10/19 00:22:15;;;;;;;10.82;9.68;;;;;;;;;;467714;28;1054;-68
2023/10/19 00:22:35;;;;;;;9.95;8.95;;;;;;;;;;467673;28;902;-68
2023/10/19 00:22:52;;;;;;;10.00;9.00;;;;;;;;;;468418;28;1360;-68
2023/10/19 00:23:09;;;;;;;10.25;9.23;;;;;;;;;;469337;28;914;-68
2023/10/19 00:23:35;;;;;;;9.85;8.85;;;;;;;;;;470491;28;976;-68
2023/10/19 00:23:58;;;;;;;9.45;8.52;;;;;;;;;;472845;28;954;-68
2023/10/19 00:24:16;;;;;;;9.77;8.50;;;;;;;;;;474336;27;1540;-68
2023/10/19 00:24:32;;;;;;;9.23;8.32;;;;;;;;;;473757;28;1746;-68
2023/10/19 00:24:47;;;;;;;9.70;8.70;;;;;;;;;;473632;28;1302;-69
2023/10/19 00:25:03;;;;;;;10.17;9.07;;;;;;;;;;472508;28;1185;-68
2023/10/19 00:25:23;;;;;;;10.18;9.02;;;;;;;;;;473824;28;1091;-68
2023/10/19 00:25:41;;;;;;;9.80;8.80;;;;;;;;;;472823;28;977;-68
2023/10/19 00:25:58;;;;;;;9.27;8.38;;;;;;;;;;471897;28;1328;-68
2023/10/19 00:26:19;;;;;;;9.40;8.50;;;;;;;;;;471844;28;1507;-68
2023/10/19 00:26:35;;;;;;;9.45;8.52;;;;;;;;;;473172;28;1324;-68
2023/10/19 00:26:54;;;;;;;9.03;8.07;;;;;;;;;;473124;28;1116;-68
2023/10/19 00:27:18;;;;;;;9.05;8.15;;;;;;;;;;473132;28;1308;-69
2023/10/19 00:27:33;;;;;;;10.20;8.60;;;;;;;;;;472734;28;947;-68
2023/10/19 00:27:49;;;;;;;10.55;8.90;;;;;;;;;;471769;28;1144;-68
2023/10/19 00:28:04;;;;;;;9.30;8.33;;;;;;;;;;473151;28;885;-69
2023/10/19 00:28:20;;;;;;;9.27;8.32;;;;;;;;;;473000;28;1052;-68
2023/10/19 00:28:36;;;;;;;9.20;8.30;;;;;;;;;;470943;28;1044;-68
2023/10/19 00:28:57;;;;;;;9.15;8.25;;;;;;;;;;469387;28;1357;-68
2023/10/19 00:29:31;;;;;;;8.95;8.05;;;;;;;;;;467513;28;1283;-68
2023/10/19 00:29:49;;;;;;;9.20;8.30;;;;;;;;;;468574;28;1083;-68
2023/10/19 00:30:06;;;;;;;9.40;8.50;;;;;;;;;;470582;28;1005;-68
2023/10/19 00:30:23;;;;;;;9.50;8.50;;;;;;;;;;469360;28;991;-68
2023/10/19 00:30:42;;;;;;;9.75;8.50;;;;;;;;;;471666;28;1160;-68
2023/10/19 00:31:03;;;;;;;9.75;8.73;;;;;;;;;;472804;28;1615;-68
2023/10/19 00:31:22;;;;;;;9.65;8.70;;;;;;;;;;470445;28;1265;-68
2023/10/19 00:31:40;;;;;;;9.48;8.48;;;;;;;;;;472130;28;1229;-68
2023/10/19 00:31:58;;;;;;;9.20;8.30;;;;;;;;;;469843;28;1227;-69
2023/10/19 00:32:14;;;;;;;9.50;8.60;;;;;;;;;;469000;28;1422;-68
2023/10/19 00:32:30;;;;;;;9.82;8.82;;;;;;;;;;469572;28;1127;-68
2023/10/19 00:32:46;;;;;;;9.70;8.70;;;;;;;;;;469344;28;1367;-68
2023/10/19 00:33:15;;;;;;;9.43;8.50;;;;;;;;;;470417;28;1522;-68
2023/10/19 00:33:32;;;;;;;9.38;8.40;;;;;;;;;;470893;28;1257;-68
2023/10/19 00:33:51;;;;;;;9.50;8.50;;;;;;;;;;472365;28;1189;-68
2023/10/19 00:34:06;;;;;;;9.40;8.50;;;;;;;;;;474145;27;1470;-68
2023/10/19 00:34:22;;;;;;;9.30;8.40;;;;;;;;;;475165;27;1226;-68
2023/10/19 00:34:38;;;;;;;9.20;8.30;;;;;;;;;;472563;28;1218;-68
2023/10/19 00:34:55;;;;;;;11.00;8.35;;;;;;;;;;473167;28;1330;-68
2023/10/19 00:35:27;;;;;;;10.98;8.30;;;;;;;;;;473453;28;1507;-68
2023/10/19 00:35:46;;;;;;;8.68;7.78;;;;;;;;;;472982;28;1269;-68
2023/10/19 00:36:08;;;;;;;8.68;7.70;;;;;;;;;;473463;28;1447;-68
2023/10/19 00:36:23;;;;;;;8.40;7.55;;;;;;;;;;472869;28;2012;-68
2023/10/19 00:36:40;;;;;;;8.20;7.40;;;;;;;;;;473400;28;1146;-68
2023/10/19 00:36:56;;;;;;;8.20;7.40;;;;;;;;;;473624;28;2172;-68
2023/10/19 00:37:18;;;;;;;8.20;7.40;;;;;;;;;;473415;28;1366;-68
2023/10/19 00:37:42;;;;;;;8.40;7.60;;;;;;;;;;472969;28;1236;-68
2023/10/19 00:38:17;;;;;;;8.65;7.75;;;;;;;;;;473940;28;1325;-68
2023/10/19 00:39:15;;;;;;;8.90;7.83;;;;;;;;;;472681;28;1188;-68
2023/10/19 00:39:41;;;;;;;8.20;7.40;;;;;;;;;;472689;28;1332;-68
2023/10/19 00:39:56;;;;;;;8.43;7.60;;;;;;;;;;473656;28;1209;-68
2023/10/19 00:40:20;;;;;;;8.55;7.75;;;;;;;;;;472955;28;1272;-68
2023/10/19 00:40:41;;;;;;;7.97;7.28;;;;;;;;;;472655;28;1249;-68
2023/10/19 00:41:05;;;;;;;8.20;7.40;;;;;;;;;;474303;27;1244;-68
2023/10/19 00:41:32;;;;;;;8.48;7.57;;;;;;;;;;475205;27;1326;-68
2023/10/19 00:41:48;;;;;;;8.23;7.53;;;;;;;;;;472766;28;1307;-68
2023/10/19 00:42:03;;;;;;;8.40;7.60;;;;;;;;;;473546;28;1159;-68
2023/10/19 00:42:23;;;;;;;8.37;7.57;;;;;;;;;;473029;28;1470;-68
2023/10/19 00:42:45;;;;;;;8.13;7.32;;;;;;;;;;472861;28;2878;-68
2023/10/19 00:43:10;;;;;;;7.72;7.03;;;;;;;;;;471836;28;2158;-68
2023/10/19 00:43:34;;;;;;;7.97;7.20;;;;;;;;;;469999;28;1347;-68
2023/10/19 00:43:51;;;;;;;7.90;7.20;;;;;;;;;;472413;28;1439;-68
2023/10/19 00:44:10;;;;;;;8.35;7.55;;;;;;;;;;471122;28;1201;-68
2023/10/19 00:44:37;;;;;;;8.32;7.50;;;;;;;;;;468638;28;1164;-68
2023/10/19 00:45:00;;;;;;;7.78;7.07;;;;;;;;;;470105;28;906;-66
2023/10/19 00:45:17;;;;;;;8.00;7.20;;;;;;;;;;469836;28;1202;-67
2023/10/19 00:45:39;;;;;;;8.02;7.22;;;;;;;;;;470759;28;1204;-66
2023/10/19 00:45:55;;;;;;;7.97;7.18;;;;;;;;;;469998;28;1201;-66
2023/10/19 00:46:43;;;;;;;8.02;7.22;;;;;;;;;;471469;28;1352;-66
2023/10/19 00:47:08;;;;;;;8.10;7.30;;;;;;;;;;471689;28;1167;-66
2023/10/19 00:47:30;;;;;;;7.93;7.13;;;;;;;;;;471095;28;968;-66
2023/10/19 00:47:46;;;;;;;7.97;7.22;;;;;;;;;;471643;28;1644;-66
2023/10/19 00:48:04;;;;;;;7.88;7.10;;;;;;;;;;472967;28;1144;-66
2023/10/19 00:48:23;;;;;;;7.90;7.10;;;;;;;;;;470796;28;1454;-66
2023/10/19 00:48:40;;;;;;;7.90;7.10;;;;;;;;;;469268;28;1169;-66
2023/10/19 00:49:00;;;;;;;7.75;7.00;;;;;;;;;;469393;28;960;-66
2023/10/19 00:49:15;;;;;;;8.63;7.03;;;;;;;;;;469695;28;1653;-66
2023/10/19 00:49:31;;;;;;;7.83;6.93;;;;;;;;;;471598;28;950;-66
2023/10/19 00:49:46;;;;;;;7.90;7.10;;;;;;;;;;471047;28;1044;-66
2023/10/19 00:50:05;;;;;;;7.93;7.20;;;;;;;;;;470236;28;1358;-66
2023/10/19 00:50:22;;;;;;;7.85;7.05;;;;;;;;;;470132;28;1156;-67
2023/10/19 00:50:38;;;;;;;8.23;7.32;;;;;;;;;;472556;28;1135;-66
2023/10/19 00:51:06;;;;;;;8.20;7.40;;;;;;;;;;472816;28;1096;-66
2023/10/19 00:52:10;;;;;;;7.65;6.95;;;;;;;;;;471304;28;917;-66
2023/10/19 00:52:26;;;;;;;7.85;7.10;;;;;;;;;;473194;28;1589;-66
2023/10/19 00:52:49;;;;;;;7.63;6.93;;;;;;;;;;473175;28;933;-66
2023/10/19 00:53:08;;;;;;;7.70;7.00;;;;;;;;;;470278;28;2840;-66
2023/10/19 00:53:23;;;;;;;7.95;7.10;;;;;;;;;;470735;28;1120;-66
2023/10/19 00:53:39;;;;;;;7.67;6.70;;;;;;;;;;470590;28;1013;-66
2023/10/19 00:53:57;;;;;;;7.57;6.85;;;;;;;;;;470775;28;1149;-66
2023/10/19 00:54:26;;;;;;;7.57;6.85;;;;;;;;;;469889;28;1207;-66
2023/10/19 00:55:05;;;;;;;7.72;6.97;;;;;;;;;;470123;28;1372;-66
2023/10/19 00:55:21;;;;;;;7.43;6.72;;;;;;;;;;469423;28;1181;-66
2023/10/19 00:55:36;;;;;;;7.75;7.05;;;;;;;;;;467665;28;1389;-66
2023/10/19 00:55:52;;;;;;;7.87;7.07;;;;;;;;;;468767;28;1050;-66
2023/10/19 00:56:09;;;;;;;7.80;7.00;;;;;;;;;;469795;28;1096;-66
2023/10/19 00:56:32;;;;;;;7.88;7.07;;;;;;;;;;470178;28;1965;-66
2023/10/19 00:56:56;;;;;;;7.22;6.53;;;;;;;;;;470228;28;944;-66
2023/10/19 00:57:12;;;;;;;7.57;6.82;;;;;;;;;;471979;28;948;-66
2023/10/19 00:57:34;;;;;;;7.50;6.70;;;;;;;;;;473405;28;1266;-66
2023/10/19 00:57:49;;;;;;;7.32;6.63;;;;;;;;;;473046;28;1237;-66
2023/10/19 00:58:09;;;;;;;7.50;6.80;;;;;;;;;;472846;28;1062;-66
2023/10/19 00:58:29;;;;;;;7.38;6.57;;;;;;;;;;472879;28;1315;-66
2023/10/19 00:58:53;;;;;;;7.15;6.45;;;;;;;;;;473220;28;1069;-66
2023/10/19 00:59:22;;;;;;;7.65;6.80;;;;;;;;;;472940;28;1322;-66
2023/10/19 00:59:49;;;;;;;7.15;6.50;;;;;;;;;;471906;28;1083;-66
2023/10/19 01:00:11;;;;;;;7.85;6.40;;;;;;;;;;472646;28;941;-66
2023/10/19 01:00:35;;;;;;;7.53;6.68;;;;;;;;;;472635;28;1033;-66
2023/10/19 01:00:50;;;;;;;7.30;6.60;;;;;;;;;;472345;28;1020;-66
2023/10/19 01:01:05;;;;;;;7.40;6.70;;;;;;;;;;474299;27;1100;-66
2023/10/19 01:01:24;;;;;;;7.40;6.70;;;;;;;;;;475400;27;1017;-66
2023/10/19 01:01:45;;;;;;;7.38;6.68;;;;;;;;;;474151;27;1139;-66
2023/10/19 01:02:34;;;;;;;6.60;6.00;;;;;;;;;;473159;28;935;-66
2023/10/19 01:02:51;;;;;;;6.60;6.00;;;;;;;;;;470537;28;1018;-66
2023/10/19 01:03:09;;;;;;;6.30;5.70;;;;;;;;;;470700;28;1053;-67
2023/10/19 01:03:31;;;;;;;6.40;5.80;;;;;;;;;;471698;28;1944;-66
2023/10/19 01:03:52;;;;;;;7.22;6.50;;;;;;;;;;471063;28;1217;-66
2023/10/19 01:04:07;;;;;;;6.95;6.25;;;;;;;;;;473009;28;1033;-66
2023/10/19 01:04:23;;;;;;;6.97;6.27;;;;;;;;;;473081;28;1150;-66
2023/10/19 01:04:42;;;;;;;7.38;6.57;;;;;;;;;;472902;27;857;-66
2023/10/19 01:05:04;;;;;;;7.38;6.68;;;;;;;;;;475368;27;960;-66
2023/10/19 01:05:21;;;;;;;7.38;6.68;;;;;;;;;;473916;28;1230;-66
2023/10/19 01:05:37;;;;;;;7.35;6.65;;;;;;;;;;472726;28;1144;-66
2023/10/19 01:05:54;;;;;;;6.97;6.28;;;;;;;;;;472382;28;1123;-66
2023/10/19 01:06:13;;;;;;;7.10;6.40;;;;;;;;;;473243;28;1143;-66
2023/10/19 01:06:31;;;;;;;6.82;6.13;;;;;;;;;;470722;28;1574;-66
2023/10/19 01:07:11;;;;;;;;;;;;;;;;;;;;;
2023/10/19 01:07:27;;;;;;;7.15;6.45;;;;;;;;;;468904;28;1042;-66
2023/10/19 01:07:44;;;;;;;6.90;6.30;;;;;;;;;;469932;28;890;-66
2023/10/19 01:08:05;;;;;;;6.88;6.28;;;;;;;;;;470440;28;994;-66
2023/10/19 01:08:31;;;;;;;7.22;6.40;;;;;;;;;;472565;28;1312;-67
2023/10/19 01:08:46;;;;;;;7.53;6.30;;;;;;;;;;475244;27;1358;-66
2023/10/19 01:09:03;;;;;;;7.10;6.40;;;;;;;;;;472999;28;1156;-67
2023/10/19 01:09:20;;;;;;;7.40;6.70;;;;;;;;;;472693;28;1257;-66
2023/10/19 01:09:36;;;;;;;7.40;6.70;;;;;;;;;;472834;28;1216;-66
2023/10/19 01:09:53;;;;;;;7.20;6.50;;;;;;;;;;473124;28;1036;-66
2023/10/19 01:10:11;;;;;;;7.35;6.65;;;;;;;;;;471087;28;1326;-66
2023/10/19 01:10:28;;;;;;;7.07;6.38;;;;;;;;;;468963;28;1284;-66
2023/10/19 01:10:45;;;;;;;7.28;6.47;;;;;;;;;;469538;28;1049;-66
2023/10/19 01:11:03;;;;;;;7.82;7.03;;;;;;;;;;468335;28;1140;-66
2023/10/19 01:11:21;;;;;;;7.47;6.78;;;;;;;;;;465760;28;1212;-66
2023/10/19 01:11:36;;;;;;;7.60;6.80;;;;;;;;;;465289;28;1160;-66
2023/10/19 01:11:52;;;;;;;7.40;6.70;;;;;;;;;;465753;28;863;-66
2023/10/19 01:12:25;;;;;;;7.17;6.50;;;;;;;;;;465712;28;1646;-66
2023/10/19 01:12:41;;;;;;;7.43;6.53;;;;;;;;;;467611;28;1255;-66
2023/10/19 01:12:59;;;;;;;7.53;6.50;;;;;;;;;;468942;28;997;-66
2023/10/19 01:13:16;;;;;;;7.07;6.38;;;;;;;;;;471608;28;976;-66
2023/10/19 01:13:34;;;;;;;6.93;6.30;;;;;;;;;;470231;28;1096;-66
2023/10/19 01:13:51;;;;;;;7.10;6.40;;;;;;;;;;468955;28;1086;-66
2023/10/19 01:14:27;;;;;;;7.30;6.60;;;;;;;;;;471111;28;1698;-66
2023/10/19 01:14:43;;;;;;;7.00;6.40;;;;;;;;;;468466;28;1577;-66
2023/10/19 01:15:05;;;;;;;6.93;6.32;;;;;;;;;;469389;28;1050;-66
2023/10/19 01:15:43;;;;;;;6.80;6.20;;;;;;;;;;471286;28;1094;-66
2023/10/19 01:15:58;;;;;;;7.23;6.53;;;;;;;;;;470515;28;1175;-66
2023/10/19 01:16:21;;;;;;;7.30;6.60;;;;;;;;;;471048;28;925;-66
2023/10/19 01:16:36;;;;;;;7.07;6.47;;;;;;;;;;469796;28;1601;-66
2023/10/19 01:16:56;;;;;;;6.82;6.15;;;;;;;;;;467947;28;1219;-66
2023/10/19 01:17:12;;;;;;;7.03;6.32;;;;;;;;;;468850;28;1526;-66
2023/10/19 01:17:31;;;;;;;7.17;6.47;;;;;;;;;;469107;28;1207;-66
2023/10/19 01:17:58;;;;;;;7.00;6.30;;;;;;;;;;470609;28;1126;-66
2023/10/19 01:18:14;;;;;;;6.97;6.28;;;;;;;;;;470585;28;1133;-66
2023/10/19 01:18:32;;;;;;;7.05;6.32;;;;;;;;;;470757;28;1168;-66
2023/10/19 01:18:54;;;;;;;7.07;6.30;;;;;;;;;;471919;28;1289;-66
2023/10/19 01:19:11;;;;;;;7.20;6.50;;;;;;;;;;471043;28;1579;-66
2023/10/19 01:19:27;;;;;;;6.90;6.20;;;;;;;;;;470895;28;925;-66
2023/10/19 01:19:42;;;;;;;7.00;6.30;;;;;;;;;;472654;28;917;-66
2023/10/19 01:19:58;;;;;;;7.93;6.37;;;;;;;;;;472310;28;866;-66
2023/10/19 01:20:20;;;;;;;7.78;6.43;;;;;;;;;;472893;28;1214;-66
2023/10/19 01:20:50;;;;;;;6.97;6.28;;;;;;;;;;471501;28;1286;-66
2023/10/19 01:21:07;;;;;;;7.47;6.70;;;;;;;;;;472081;28;1031;-66
2023/10/19 01:21:37;;;;;;;6.97;6.28;;;;;;;;;;470997;28;1053;-66
2023/10/19 01:21:59;;;;;;;6.65;6.05;;;;;;;;;;470923;28;964;-66
2023/10/19 01:22:16;;;;;;;7.07;6.38;;;;;;;;;;469086;28;1046;-66
2023/10/19 01:22:32;;;;;;;7.35;6.53;;;;;;;;;;469588;28;1140;-66
2023/10/19 01:23:20;;;;;;;7.07;6.33;;;;;;;;;;469697;28;1591;-66
2023/10/19 01:23:30;;;;;;;7.07;6.38;;;;;;;;;;473064;28;1659;-66
2023/10/19 01:23:46;;;;;;;6.70;6.10;;;;;;;;;;471313;28;1195;-66
2023/10/19 01:24:01;;;;;;;6.70;6.10;;;;;;;;;;471456;28;971;-66
2023/10/19 01:24:42;;;;;;;7.03;6.33;;;;;;;;;;471944;28;1080;-66
2023/10/19 01:24:58;;;;;;;7.60;6.68;;;;;;;;;;472165;28;1648;-66
2023/10/19 01:25:23;;;;;;;7.78;6.65;;;;;;;;;;472012;28;1316;-66
2023/10/19 01:26:10;;;;;;;7.50;6.80;;;;;;;;;;471445;28;1148;-66
2023/10/19 01:26:26;;;;;;;7.10;6.40;;;;;;;;;;470451;28;1387;-66
2023/10/19 01:26:42;;;;;;;6.75;6.15;;;;;;;;;;470400;28;894;-66
2023/10/19 01:26:59;;;;;;;6.87;6.27;;;;;;;;;;470964;28;1101;-66
2023/10/19 01:27:15;;;;;;;7.30;6.60;;;;;;;;;;472834;28;1011;-66
2023/10/19 01:27:31;;;;;;;7.40;6.70;;;;;;;;;;473251;27;928;-66
2023/10/19 01:27:47;;;;;;;7.38;6.60;;;;;;;;;;474522;27;915;-66
2023/10/19 01:28:08;;;;;;;7.25;6.40;;;;;;;;;;474721;27;1140;-66
2023/10/19 01:29:09;;;;;;;7.00;6.30;;;;;;;;;;472066;28;997;-66
2023/10/19 01:29:28;;;;;;;7.38;6.68;;;;;;;;;;473429;28;1030;-66
2023/10/19 01:29:43;;;;;;;6.90;6.30;;;;;;;;;;472403;28;913;-66
2023/10/19 01:30:02;;;;;;;7.18;6.47;;;;;;;;;;472492;28;1147;-66
2023/10/19 01:30:18;;;;;;;7.32;6.50;;;;;;;;;;471944;28;901;-66
2023/10/19 01:30:34;;;;;;;7.10;6.40;;;;;;;;;;470945;28;1235;-66
2023/10/19 01:30:52;;;;;;;7.07;6.37;;;;;;;;;;468888;28;838;-66
2023/10/19 01:32:07;;;;;;;8.05;6.75;;;;;;;;;;468877;28;1106;-66
2023/10/19 01:32:22;;;;;;;7.05;6.35;;;;;;;;;;471189;28;1507;-66
2023/10/19 01:32:38;;;;;;;7.32;6.63;;;;;;;;;;473191;27;870;-66
2023/10/19 01:32:53;;;;;;;7.32;6.68;;;;;;;;;;474252;27;1287;-66
2023/10/19 01:33:12;;;;;;;7.23;6.57;;;;;;;;;;473063;28;1210;-66
2023/10/19 01:33:28;;;;;;;7.40;6.40;;;;;;;;;;472581;28;1072;-66
2023/10/19 01:33:44;;;;;;;7.80;6.67;;;;;;;;;;472484;28;1085;-66
2023/10/19 01:34:06;;;;;;;7.40;6.63;;;;;;;;;;472985;28;1168;-66
2023/10/19 01:34:22;;;;;;;7.32;6.47;;;;;;;;;;472949;28;900;-66
2023/10/19 01:34:37;;;;;;;7.47;6.60;;;;;;;;;;473255;28;877;-66
2023/10/19 01:34:52;;;;;;;7.25;6.53;;;;;;;;;;470871;28;1112;-66
2023/10/19 01:35:08;;;;;;;7.03;6.33;;;;;;;;;;473245;28;1140;-66
2023/10/19 01:35:23;;;;;;;7.17;6.37;;;;;;;;;;473195;28;1338;-66
2023/10/19 01:36:38;;;;;;;7.70;6.88;;;;;;;;;;471023;28;991;-66
2023/10/19 01:36:54;;;;;;;7.20;6.50;;;;;;;;;;470155;28;1220;-66
2023/10/19 01:37:12;;;;;;;7.55;6.78;;;;;;;;;;472777;28;944;-66
2023/10/19 01:37:27;;;;;;;8.00;7.13;;;;;;;;;;470797;28;1085;-66
2023/10/19 01:37:42;;;;;;;7.68;6.93;;;;;;;;;;472568;28;877;-66
2023/10/19 01:37:57;;;;;;;7.33;6.63;;;;;;;;;;472753;28;858;-66
2023/10/19 01:38:13;;;;;;;7.47;6.77;;;;;;;;;;472011;28;1091;-66
2023/10/19 01:38:32;;;;;;;7.60;6.90;;;;;;;;;;471998;28;1178;-66
2023/10/19 01:38:48;;;;;;;7.60;6.90;;;;;;;;;;472508;28;1505;-66
2023/10/19 01:39:09;;;;;;;7.50;6.70;;;;;;;;;;473070;28;1037;-66
2023/10/19 01:39:25;;;;;;;7.47;6.78;;;;;;;;;;472211;28;1585;-66
2023/10/19 01:39:45;;;;;;;7.55;6.60;;;;;;;;;;471403;28;932;-66
2023/10/19 01:40:01;;;;;;;7.85;6.50;;;;;;;;;;469845;28;1100;-66
2023/10/19 01:40:20;;;;;;;7.57;6.70;;;;;;;;;;468412;28;1377;-66
2023/10/19 01:40:35;;;;;;;7.47;6.68;;;;;;;;;;468297;28;1285;-66
2023/10/19 01:40:51;;;;;;;7.10;6.40;;;;;;;;;;469273;28;1325;-66
2023/10/19 01:41:14;;;;;;;7.47;6.67;;;;;;;;;;469127;28;902;-66
2023/10/19 01:41:31;;;;;;;7.65;6.80;;;;;;;;;;470583;28;1040;-66
2023/10/19 01:41:46;;;;;;;7.60;6.80;;;;;;;;;;471474;28;1360;-67
2023/10/19 01:42:04;;;;;;;7.50;6.70;;;;;;;;;;471116;28;921;-66
2023/10/19 01:42:19;;;;;;;7.45;6.75;;;;;;;;;;473025;28;957;-66
2023/10/19 01:42:35;;;;;;;7.60;6.90;;;;;;;;;;472492;28;1120;-66
2023/10/19 01:42:50;;;;;;;7.40;6.70;;;;;;;;;;473300;27;976;-66
2023/10/19 01:43:06;;;;;;;7.50;6.80;;;;;;;;;;472333;28;1084;-66
2023/10/19 01:43:21;;;;;;;7.50;6.80;;;;;;;;;;472117;28;924;-66
2023/10/19 01:43:40;;;;;;;7.55;6.85;;;;;;;;;;472529;28;1265;-66
2023/10/19 01:43:56;;;;;;;7.50;6.80;;;;;;;;;;470275;28;1207;-66
2023/10/19 01:44:15;;;;;;;7.43;6.72;;;;;;;;;;470482;28;933;-67
2023/10/19 01:44:31;;;;;;;7.82;7.00;;;;;;;;;;469827;28;1253;-66
2023/10/19 01:44:46;;;;;;;7.67;6.77;;;;;;;;;;471694;28;918;-66
2023/10/19 01:45:01;;;;;;;7.35;6.60;;;;;;;;;;471086;28;1137;-66
2023/10/19 01:45:18;;;;;;;7.63;6.83;;;;;;;;;;470842;28;1092;-66
2023/10/19 01:45:33;;;;;;;8.00;7.00;;;;;;;;;;469218;28;1184;-66
2023/10/19 01:45:53;;;;;;;7.72;6.95;;;;;;;;;;469607;28;919;-67
2023/10/19 01:46:13;;;;;;;7.45;6.75;;;;;;;;;;470844;28;1271;-66
2023/10/19 01:46:33;;;;;;;7.47;6.78;;;;;;;;;;471638;28;1101;-66
2023/10/19 01:46:48;;;;;;;7.32;6.53;;;;;;;;;;472643;28;1373;-66
2023/10/19 01:47:05;;;;;;;7.50;6.60;;;;;;;;;;473523;28;905;-66
2023/10/19 01:47:22;;;;;;;7.53;6.72;;;;;;;;;;472509;28;921;-66
2023/10/19 01:47:40;;;;;;;7.53;6.72;;;;;;;;;;473503;28;1139;-66
2023/10/19 01:47:55;;;;;;;7.28;6.57;;;;;;;;;;471315;28;964;-66
2023/10/19 01:48:12;;;;;;;7.47;6.77;;;;;;;;;;470212;28;1271;-66
2023/10/19 01:48:33;;;;;;;7.55;6.85;;;;;;;;;;469173;28;2116;-66
2023/10/19 01:48:53;;;;;;;7.60;6.90;;;;;;;;;;466275;28;1605;-66
2023/10/19 01:49:09;;;;;;;7.90;7.10;;;;;;;;;;466521;28;918;-66
2023/10/19 01:49:28;;;;;;;7.60;6.90;;;;;;;;;;465209;28;2187;-66
2023/10/19 01:49:47;;;;;;;7.25;6.55;;;;;;;;;;465960;28;938;-66
2023/10/19 01:50:05;;;;;;;8.18;6.72;;;;;;;;;;467155;28;1016;-66
2023/10/19 01:50:21;;;;;;;8.27;6.80;;;;;;;;;;469811;28;949;-66
2023/10/19 01:50:39;;;;;;;7.40;6.70;;;;;;;;;;469352;28;1155;-66
2023/10/19 01:50:54;;;;;;;7.68;6.88;;;;;;;;;;470294;28;1108;-66
2023/10/19 01:51:11;;;;;;;7.68;6.88;;;;;;;;;;469418;28;1099;-66
2023/10/19 01:51:28;;;;;;;7.97;7.05;;;;;;;;;;471575;28;1146;-66
2023/10/19 01:51:44;;;;;;;8.55;7.18;;;;;;;;;;469622;28;1178;-66
2023/10/19 01:52:00;;;;;;;7.80;7.00;;;;;;;;;;469287;28;855;-67
2023/10/19 01:52:15;;;;;;;7.32;6.63;;;;;;;;;;469877;28;1057;-66
2023/10/19 01:52:31;;;;;;;8.00;7.20;;;;;;;;;;471020;28;866;-66
2023/10/19 01:52:46;;;;;;;8.18;7.38;;;;;;;;;;472031;28;1075;-66
2023/10/19 01:53:12;;;;;;;7.70;7.00;;;;;;;;;;472081;28;1097;-66
2023/10/19 01:53:28;;;;;;;8.15;7.35;;;;;;;;;;471254;28;940;-66
2023/10/19 01:53:44;;;;;;;8.27;7.35;;;;;;;;;;472777;28;1368;-66
2023/10/19 01:54:03;;;;;;;7.90;7.10;;;;;;;;;;471271;28;1010;-66
2023/10/19 01:54:22;;;;;;;7.80;7.00;;;;;;;;;;471732;28;897;-66
2023/10/19 01:54:38;;;;;;;7.70;7.00;;;;;;;;;;471652;28;882;-66
2023/10/19 01:54:59;;;;;;;8.30;7.47;;;;;;;;;;471934;28;1184;-68
2023/10/19 01:55:20;;;;;;;8.38;7.50;;;;;;;;;;470439;28;1294;-68
2023/10/19 01:55:37;;;;;;;8.00;7.20;;;;;;;;;;470553;28;1144;-68
2023/10/19 01:55:57;;;;;;;7.95;7.15;;;;;;;;;;471134;28;936;-68
2023/10/19 01:56:15;;;;;;;7.50;6.80;;;;;;;;;;473046;28;1418;-68
2023/10/19 01:56:30;;;;;;;7.88;7.18;;;;;;;;;;472794;28;2376;-68
2023/10/19 01:56:45;;;;;;;7.97;7.18;;;;;;;;;;471039;28;1152;-68
2023/10/19 01:57:01;;;;;;;7.77;6.97;;;;;;;;;;472745;28;859;-68
2023/10/19 01:57:16;;;;;;;7.65;6.95;;;;;;;;;;469362;28;1218;-68
2023/10/19 01:57:32;;;;;;;7.73;6.97;;;;;;;;;;469343;28;905;-68
2023/10/19 01:57:47;;;;;;;8.30;7.47;;;;;;;;;;469068;28;854;-68
2023/10/19 01:58:03;;;;;;;8.17;7.37;;;;;;;;;;469110;28;1019;-68
2023/10/19 01:58:18;;;;;;;8.10;7.30;;;;;;;;;;468586;28;874;-68
2023/10/19 01:58:36;;;;;;;8.30;7.50;;;;;;;;;;471287;28;1021;-68
2023/10/19 01:58:51;;;;;;;8.35;7.55;;;;;;;;;;471933;28;1100;-68
2023/10/19 01:59:09;;;;;;;8.13;7.33;;;;;;;;;;472047;28;1017;-68
2023/10/19 01:59:27;;;;;;;8.00;7.20;;;;;;;;;;471800;28;1342;-68
2023/10/19 01:59:44;;;;;;;8.15;7.35;;;;;;;;;;473035;28;1265;-68
2023/10/19 01:59:59;;;;;;;7.68;6.95;;;;;;;;;;472095;28;897;-68
2023/10/19 02:00:22;;;;;;;7.07;6.40;;;;;;;;;;472810;28;1259;-68
2023/10/19 02:00:39;;;;;;;8.43;7.53;;;;;;;;;;473598;28;1445;-68
2023/10/19 02:00:55;;;;;;;8.63;7.75;;;;;;;;;;472622;28;1206;-68
2023/10/19 02:01:30;;;;;;;7.50;6.80;;;;;;;;;;470383;28;1325;-68
2023/10/19 02:01:46;;;;;;;7.00;6.30;;;;;;;;;;471464;28;1186;-68
2023/10/19 02:02:02;;;;;;;7.70;7.00;;;;;;;;;;470711;28;1256;-68
2023/10/19 02:02:18;;;;;;;8.50;7.60;;;;;;;;;;469892;28;1100;-68
2023/10/19 02:02:35;;;;;;;8.55;7.60;;;;;;;;;;471479;28;893;-68
2023/10/19 02:02:50;;;;;;;8.27;7.47;;;;;;;;;;469458;28;1001;-68